This is the latest recevied weather packets stored in our database for station/object WD7OO. If no packets are shown the sender has not sent any weather packets the latest 10 day(s).
| Time | Temp. | Humidity | Pressure | Rain* | Wind** | Luminosity | Snow |
|---|---|---|---|---|---|---|---|
| 1777944763 | 16.11° C | 92% | 1001.1 hPa | 0 mm | - | 0 W/m² | - |
| 1777944461 | 16.11° C | 91% | 1001 hPa | 0 mm | - | 0 W/m² | - |
| 1777944158 | 16.11° C | 90% | 1000.8 hPa | 0 mm | - | 0 W/m² | - |
| 1777943853 | 17.22° C | 86% | 1000.7 hPa | 10.67 mm | - | 0 W/m² | - |
| 1777943552 | 17.78° C | 83% | 1001.5 hPa | 10.67 mm | - | 0 W/m² | - |
| 1777943247 | 18.89° C | 75% | 1001.9 hPa | 1.78 mm | - | 0 W/m² | - |
| 1777942943 | 20° C | 68% | 1001.2 hPa | 0 mm | - | 0 W/m² | - |
| 1777942640 | 20.56° C | 63% | 1000.9 hPa | 0 mm | - | 0 W/m² | - |
| 1777942337 | 21.11° C | 61% | 1000.6 hPa | 0 mm | - | 0 W/m² | - |
| 1777942034 | 21.67° C | 58% | 1000.5 hPa | 0 mm | - | 0 W/m² | - |
| 1777941730 | 21.67° C | 57% | 1000.3 hPa | 0 mm | - | 0 W/m² | - |
| 1777941428 | 21.67° C | 56% | 999.9 hPa | 0 mm | - | 0 W/m² | - |
| 1777941126 | 21.67° C | 56% | 1000.3 hPa | 0 mm | - | 0 W/m² | - |
| 1777940821 | 22.22° C | 55% | 1000.2 hPa | 0 mm | - | 0 W/m² | - |
| 1777940520 | 21.67° C | 56% | 1000.3 hPa | 0 mm | - | 0 W/m² | - |
| 1777940216 | 21.67° C | 59% | 1000.3 hPa | 0 mm | - | 1 W/m² | - |
| 1777939914 | 21.67° C | 59% | 1000.3 hPa | 0 mm | - | 0 W/m² | - |
| 1777939610 | 21.67° C | 61% | 1000.5 hPa | 0 mm | - | 0 W/m² | - |
| 1777939309 | 21.67° C | 62% | 1000.5 hPa | 0 mm | - | 0 W/m² | - |
| 1777939004 | 21.67° C | 62% | 1000.3 hPa | 0 mm | - | 1 W/m² | - |
| 1777938701 | 21.67° C | 61% | 1000.4 hPa | 0 mm | - | 1 W/m² | - |
| 1777938398 | 21.67° C | 62% | 1000.2 hPa | 0 mm | - | 3 W/m² | - |
| 1777938096 | 21.67° C | 61% | 1000.4 hPa | 0 mm | - | 5 W/m² | - |
| 1777937791 | 21.67° C | 61% | 1000.4 hPa | 0 mm | - | 7 W/m² | - |
| 1777937487 | 22.22° C | 61% | 1000.5 hPa | 0 mm | - | 12 W/m² | - |
* Rain latest hour (hover to see other rain measurements)
** Current wind speed in m/s (hover to see current wind gust speed)